createdAt,value
2023-03-18T00:00:30.371Z,88.67
2023-03-18T00:02:57.328Z,89.65
2023-03-18T00:05:24.738Z,89.92
2023-03-18T00:07:51.373Z,90.05
2023-03-18T00:10:18.979Z,90.26
2023-03-18T00:12:45.697Z,91.08
2023-03-18T00:15:13.965Z,91.56
2023-03-18T00:17:41.404Z,91.52
2023-03-18T00:20:09.721Z,92.19
2023-03-18T00:22:40.834Z,93.12
2023-03-18T00:25:09.724Z,93.69
2023-03-18T00:27:36.900Z,92.75
2023-03-18T00:30:05.740Z,92.97
2023-03-18T00:32:33.217Z,92.92
2023-03-18T00:37:31.637Z,93.17
2023-03-18T00:40:03.389Z,93.45
2023-03-18T00:42:37.240Z,92.83
2023-03-18T00:45:06.357Z,92.62
2023-03-18T00:47:33.993Z,91.84
2023-03-18T00:52:27.830Z,92.92
2023-03-18T00:54:54.628Z,93.75
2023-03-18T00:57:25.253Z,94.93
2023-03-18T00:59:52.059Z,95.05
2023-03-18T01:02:19.425Z,94.88
2023-03-18T01:04:46.350Z,95.01
2023-03-18T01:07:13.620Z,94.95
2023-03-18T01:09:40.965Z,94.91
2023-03-18T01:12:09.729Z,94.69
2023-03-18T01:14:38.360Z,94.45
2023-03-18T01:17:07.445Z,94.31
2023-03-18T01:19:34.872Z,94.15
2023-03-18T01:22:03.841Z,93.68
2023-03-18T01:24:30.881Z,94.31
2023-03-18T01:26:58.286Z,94.53
2023-03-18T01:29:25.424Z,95.06
2023-03-18T01:31:52.435Z,95.15
2023-03-18T01:34:19.442Z,94.71
2023-03-18T01:36:46.641Z,95.02
2023-03-18T01:39:15.633Z,95.45
2023-03-18T01:41:42.467Z,95.23
2023-03-18T01:44:19.299Z,95.08
2023-03-18T01:46:47.876Z,95.30
2023-03-18T01:49:33.186Z,95.12
2023-03-18T01:52:05.492Z,95.26
2023-03-18T01:54:38.076Z,95.74
2023-03-18T01:57:05.125Z,95.50
2023-03-18T01:59:34.165Z,96.07
2023-03-18T02:02:03.372Z,96.22
2023-03-18T02:04:36.639Z,95.70
2023-03-18T02:07:04.339Z,95.90
2023-03-18T02:09:31.990Z,95.26
2023-03-18T02:14:33.324Z,95.73
2023-03-18T02:17:03.574Z,95.59
2023-03-18T02:19:46.933Z,95.61
2023-03-18T02:22:24.733Z,95.87
2023-03-18T02:25:02.398Z,95.56
2023-03-18T02:27:33.925Z,95.61
2023-03-18T02:30:03.297Z,95.43
2023-03-18T02:32:33.542Z,96.10
2023-03-18T02:35:03.341Z,95.75
2023-03-18T02:37:29.999Z,96.02
2023-03-18T02:40:02.379Z,96.73
2023-03-18T02:42:34.796Z,95.75
2023-03-18T02:47:28.875Z,94.26
2023-03-18T02:49:56.943Z,94.26
2023-03-18T02:52:24.764Z,94.49
2023-03-18T02:54:52.309Z,94.67
2023-03-18T02:57:19.130Z,93.81
2023-03-18T02:59:46.700Z,93.74
2023-03-18T03:02:13.441Z,93.94
2023-03-18T03:04:41.143Z,94.45
2023-03-18T03:07:12.678Z,95.41
2023-03-18T03:09:39.455Z,95.36
2023-03-18T03:12:06.805Z,95.47
2023-03-18T03:14:33.599Z,95.43
2023-03-18T03:17:00.454Z,95.35
2023-03-18T03:19:27.175Z,94.46
2023-03-18T03:21:53.864Z,94.90
2023-03-18T03:24:20.542Z,94.98
2023-03-18T03:26:48.158Z,94.48
2023-03-18T03:29:14.852Z,95.57
2023-03-18T03:31:41.885Z,95.37
2023-03-18T03:34:09.200Z,95.86
2023-03-18T03:36:36.061Z,95.59
2023-03-18T03:39:03.447Z,96.09
2023-03-18T03:41:30.266Z,95.48
2023-03-18T03:43:56.958Z,95.52
2023-03-18T03:46:23.679Z,96.04
2023-03-18T03:48:50.577Z,95.82
2023-03-18T03:51:17.448Z,95.71
2023-03-18T03:53:46.381Z,95.31
2023-03-18T03:56:13.220Z,95.44
2023-03-18T03:58:40.326Z,95.21
2023-03-18T04:01:08.746Z,95.68
2023-03-18T04:03:35.753Z,96.62
2023-03-18T04:06:03.446Z,96.56
2023-03-18T04:08:30.235Z,97.18
2023-03-18T04:11:00.169Z,96.74
2023-03-18T04:13:26.921Z,96.94
2023-03-18T04:15:53.584Z,96.01
2023-03-18T04:18:20.392Z,95.84
2023-03-18T04:20:48.050Z,95.25
2023-03-18T04:23:14.810Z,95.22
2023-03-18T04:25:44.747Z,94.77
2023-03-18T04:28:11.493Z,94.48
2023-03-18T04:30:38.213Z,94.40
2023-03-18T04:33:05.195Z,94.76
2023-03-18T04:35:32.429Z,94.35
2023-03-18T04:37:59.179Z,94.72
2023-03-18T04:40:26.252Z,94.78
2023-03-18T04:42:53.446Z,95.34
2023-03-18T04:45:20.758Z,94.79
2023-03-18T04:47:48.234Z,94.86
2023-03-18T04:50:17.935Z,94.72
2023-03-18T04:52:45.302Z,94.67
2023-03-18T04:55:14.266Z,94.08
2023-03-18T04:57:42.794Z,93.70
2023-03-18T05:00:12.822Z,93.98
2023-03-18T05:02:39.715Z,94.36
2023-03-18T05:05:07.909Z,95.08
2023-03-18T05:07:34.984Z,95.96
2023-03-18T05:12:28.241Z,96.34
2023-03-18T05:14:54.970Z,96.06
2023-03-18T05:17:21.692Z,96.13
2023-03-18T05:19:49.234Z,95.91
2023-03-18T05:22:18.233Z,96.19
2023-03-18T05:24:48.723Z,95.68
2023-03-18T05:27:18.489Z,95.91
2023-03-18T05:29:45.824Z,96.92
2023-03-18T05:32:14.843Z,96.65
2023-03-18T05:34:42.809Z,96.58
2023-03-18T05:37:12.455Z,96.51
2023-03-18T05:39:39.235Z,95.95
2023-03-18T05:42:06.556Z,95.67
2023-03-18T05:44:35.512Z,95.14
2023-03-18T05:49:27.932Z,94.75
2023-03-18T05:51:58.269Z,94.58
2023-03-18T05:54:25.883Z,94.36
2023-03-18T05:56:52.952Z,93.74
2023-03-18T05:59:20.463Z,93.19
2023-03-18T06:01:47.751Z,93.71
2023-03-18T06:04:15.526Z,93.36
2023-03-18T06:06:42.300Z,93.04
2023-03-18T06:09:10.980Z,91.97
2023-03-18T06:11:39.075Z,91.11
2023-03-18T06:14:07.907Z,91.65
2023-03-18T06:16:35.850Z,91.70
2023-03-18T06:19:02.541Z,91.00
2023-03-18T06:21:31.729Z,90.61
2023-03-18T06:23:58.914Z,90.50
2023-03-18T06:26:25.804Z,90.83
2023-03-18T06:28:52.784Z,91.27
2023-03-18T06:31:20.023Z,91.55
2023-03-18T06:33:47.580Z,91.97
2023-03-18T06:36:16.772Z,91.92
2023-03-18T06:38:45.154Z,91.62
2023-03-18T06:41:12.406Z,91.14
2023-03-18T06:43:48.017Z,90.79
2023-03-18T06:46:14.923Z,90.44
2023-03-18T06:48:41.902Z,90.95
2023-03-18T06:51:08.865Z,90.37
2023-03-18T06:53:36.653Z,89.66
2023-03-18T06:56:06.521Z,88.43
2023-03-18T06:58:34.387Z,88.11
2023-03-18T07:03:28.364Z,87.34
2023-03-18T07:05:56.167Z,85.97
2023-03-18T07:08:23.488Z,85.04
2023-03-18T07:10:54.333Z,84.44
2023-03-18T07:13:22.023Z,84.11
2023-03-18T07:15:48.891Z,83.68
2023-03-18T07:18:19.145Z,83.73
2023-03-18T07:20:46.740Z,82.17
2023-03-18T07:23:13.720Z,82.24
2023-03-18T07:25:40.412Z,81.71
2023-03-18T07:28:07.158Z,80.96
2023-03-18T07:30:34.560Z,80.47
2023-03-18T07:35:28.730Z,78.68
2023-03-18T07:37:55.515Z,78.14
2023-03-18T07:40:22.323Z,78.24
2023-03-18T07:42:52.014Z,77.82
2023-03-18T07:45:18.716Z,76.58
2023-03-18T07:47:47.268Z,75.87
2023-03-18T07:50:14.268Z,75.60
2023-03-18T07:52:41.316Z,75.75
2023-03-18T07:55:09.359Z,74.15
2023-03-18T07:57:36.822Z,71.69
2023-03-18T08:00:09.105Z,75.32
2023-03-18T08:02:39.547Z,75.44
2023-03-18T08:07:39.890Z,72.71
2023-03-18T08:10:07.302Z,71.91
2023-03-18T08:12:49.416Z,71.61
2023-03-18T08:15:18.768Z,70.94
2023-03-18T08:17:45.417Z,70.41
2023-03-18T08:20:12.636Z,67.30
2023-03-18T08:22:39.623Z,66.67
2023-03-18T08:25:07.041Z,65.37
2023-03-18T08:27:33.789Z,65.68
2023-03-18T08:30:03.054Z,64.13
2023-03-18T08:32:28.143Z,63.69
2023-03-18T08:34:54.839Z,61.37
2023-03-18T08:37:21.539Z,60.64
2023-03-18T08:39:48.266Z,60.62
2023-03-18T08:42:17.691Z,60.17
2023-03-18T08:44:44.397Z,59.15
2023-03-18T08:47:11.507Z,59.28
2023-03-18T08:49:38.988Z,57.22
2023-03-18T08:52:06.980Z,56.83
2023-03-18T08:54:33.842Z,56.54
2023-03-18T08:57:00.879Z,55.56
2023-03-18T08:59:27.794Z,53.51
2023-03-18T09:01:57.978Z,52.26
2023-03-18T09:04:26.146Z,52.66
2023-03-18T09:06:52.888Z,52.13
2023-03-18T09:09:20.669Z,51.89
2023-03-18T09:11:48.388Z,51.74
2023-03-18T09:14:15.312Z,51.30
2023-03-18T09:16:42.152Z,49.30
2023-03-18T09:19:08.901Z,48.41
2023-03-18T09:21:36.151Z,47.15
2023-03-18T09:24:02.915Z,45.95
2023-03-18T09:26:29.589Z,42.99
2023-03-18T09:28:56.786Z,43.99
2023-03-18T09:31:23.732Z,42.12
2023-03-18T09:33:50.609Z,40.22
2023-03-18T09:36:18.326Z,40.33
2023-03-18T09:38:47.659Z,38.24
2023-03-18T09:41:49.152Z,38.31
2023-03-18T09:44:25.963Z,39.15
2023-03-18T09:47:03.749Z,37.97
2023-03-18T09:49:55.418Z,38.01
2023-03-18T09:52:27.365Z,37.19
2023-03-18T09:55:02.630Z,38.04
2023-03-18T09:57:33.803Z,38.60
2023-03-18T10:00:02.990Z,38.27
2023-03-18T10:02:47.849Z,36.68
2023-03-18T10:05:19.934Z,37.45
2023-03-18T10:07:50.439Z,37.58
2023-03-18T10:10:22.380Z,36.85
2023-03-18T10:12:55.574Z,35.80
2023-03-18T10:15:31.592Z,35.30
2023-03-18T10:18:02.632Z,37.33
2023-03-18T10:21:01.225Z,36.62
2023-03-18T10:23:44.086Z,36.44
2023-03-18T10:26:24.424Z,37.99
2023-03-18T10:29:00.685Z,36.33
2023-03-18T10:31:34.195Z,36.19
2023-03-18T10:34:04.572Z,37.41
2023-03-18T10:36:55.901Z,38.17
2023-03-18T10:39:25.157Z,36.80
2023-03-18T10:41:54.653Z,36.37
2023-03-18T10:44:33.802Z,36.66
2023-03-18T10:47:04.014Z,35.91
2023-03-18T10:49:37.193Z,36.66
2023-03-18T10:52:34.307Z,36.12
2023-03-18T10:57:27.995Z,34.21
2023-03-18T10:59:54.870Z,33.77
2023-03-18T11:02:38.992Z,35.94
2023-03-18T11:05:23.760Z,35.76
2023-03-18T11:10:32.567Z,37.01
2023-03-18T11:15:29.168Z,35.97
2023-03-18T11:18:03.626Z,33.35
2023-03-18T11:20:47.721Z,33.57
2023-03-18T11:23:56.606Z,32.72
2023-03-18T11:26:28.941Z,33.45
2023-03-18T11:29:02.794Z,34.19
2023-03-18T11:31:32.182Z,34.94
2023-03-18T11:33:59.702Z,35.69
2023-03-18T11:36:28.579Z,36.80
2023-03-18T11:39:03.633Z,34.58
2023-03-18T11:41:30.389Z,34.35
2023-03-18T11:44:02.728Z,33.52
2023-03-18T11:46:53.782Z,32.13
2023-03-18T11:49:24.450Z,32.12
2023-03-18T11:54:53.967Z,31.46
2023-03-18T11:57:36.014Z,33.46
2023-03-18T12:00:03.634Z,31.76
2023-03-18T12:02:54.365Z,30.30
2023-03-18T12:05:28.965Z,30.86
2023-03-18T12:08:03.765Z,31.25
2023-03-18T12:10:36.480Z,29.53
2023-03-18T12:13:18.072Z,28.74
2023-03-18T12:18:30.917Z,31.20
2023-03-18T12:21:06.756Z,31.77
2023-03-18T12:24:03.660Z,28.96
2023-03-18T12:26:40.663Z,29.19
2023-03-18T12:29:36.152Z,29.27
2023-03-18T12:32:03.831Z,30.25
2023-03-18T12:34:58.635Z,28.39
2023-03-18T12:38:04.046Z,29.58
2023-03-18T12:43:57.801Z,29.20
2023-03-18T12:46:50.827Z,30.14
2023-03-18T12:49:24.017Z,28.32
2023-03-18T12:52:06.736Z,27.72
2023-03-18T12:54:40.625Z,28.79
2023-03-18T12:57:45.299Z,29.25
2023-03-18T13:00:36.560Z,27.62
2023-03-18T13:03:18.666Z,29.00
2023-03-18T13:06:04.852Z,27.25
2023-03-18T13:08:47.261Z,27.75
2023-03-18T13:11:44.884Z,28.75
2023-03-18T13:14:11.555Z,28.62
2023-03-18T13:16:39.134Z,27.12
2023-03-18T13:19:06.665Z,28.11
2023-03-18T13:21:43.310Z,27.73
2023-03-18T13:24:30.940Z,27.78
2023-03-18T13:27:04.037Z,27.74
2023-03-18T13:29:47.274Z,27.67
2023-03-18T13:32:32.777Z,29.19
2023-03-18T13:35:02.776Z,28.03
2023-03-18T13:38:03.776Z,26.32
2023-03-18T13:40:53.620Z,28.05
2023-03-18T13:43:26.065Z,27.38
2023-03-18T13:45:57.746Z,29.31
2023-03-18T13:48:35.212Z,26.59
2023-03-18T13:51:03.781Z,25.84
2023-03-18T13:53:34.693Z,26.46
2023-03-18T13:56:03.884Z,28.59
2023-03-18T13:58:45.634Z,28.27
2023-03-18T14:01:36.520Z,26.01
2023-03-18T14:04:46.129Z,28.70
2023-03-18T14:07:18.682Z,28.85
2023-03-18T14:10:18.004Z,28.41
2023-03-18T14:12:52.980Z,30.21
2023-03-18T14:15:39.897Z,28.16
2023-03-18T14:18:20.179Z,31.30
2023-03-18T14:20:54.182Z,33.05
2023-03-18T14:23:24.418Z,31.61
2023-03-18T14:28:30.506Z,32.84
2023-03-18T14:31:00.740Z,33.10
2023-03-18T14:33:33.650Z,33.05
2023-03-18T14:36:11.197Z,33.88
2023-03-18T14:38:56.976Z,30.66
2023-03-18T14:41:29.327Z,29.65
2023-03-18T14:44:03.748Z,30.05
2023-03-18T14:46:37.018Z,30.79
2023-03-18T14:49:34.259Z,32.28
2023-03-18T14:52:04.666Z,30.38
2023-03-18T14:54:40.867Z,34.07
2023-03-18T14:57:07.860Z,34.11
2023-03-18T14:59:34.805Z,35.24
2023-03-18T15:02:04.452Z,34.39
2023-03-18T15:04:32.057Z,36.42
2023-03-18T15:07:05.655Z,35.76
2023-03-18T15:09:36.475Z,35.80
2023-03-18T15:12:20.581Z,36.87
2023-03-18T15:14:50.687Z,37.02
2023-03-18T15:17:17.892Z,37.23
2023-03-18T15:19:46.672Z,36.60
2023-03-18T15:22:21.561Z,37.20
2023-03-18T15:24:48.738Z,37.17
2023-03-18T15:27:20.724Z,37.10
2023-03-18T15:29:58.768Z,37.57
2023-03-18T15:32:28.636Z,37.22
2023-03-18T15:35:02.853Z,36.35
2023-03-18T15:37:40.507Z,37.66
2023-03-18T15:40:30.365Z,37.54
2023-03-18T15:43:07.228Z,36.94
2023-03-18T15:45:34.665Z,37.41
2023-03-18T15:48:02.852Z,37.27
2023-03-18T15:50:33.762Z,36.34
2023-03-18T15:53:03.788Z,37.36
2023-03-18T15:55:34.219Z,37.22
2023-03-18T15:58:03.845Z,36.43
2023-03-18T16:00:32.844Z,36.00
2023-03-18T16:02:59.928Z,34.09
2023-03-18T16:05:29.276Z,35.37
2023-03-18T16:07:56.189Z,36.64
2023-03-18T16:10:26.596Z,37.08
2023-03-18T16:12:58.157Z,37.64
2023-03-18T16:15:28.389Z,38.37
2023-03-18T16:17:56.618Z,38.88
2023-03-18T16:20:27.814Z,37.67
2023-03-18T16:22:55.679Z,37.86
2023-03-18T16:25:24.700Z,38.66
2023-03-18T16:27:57.456Z,38.95
2023-03-18T16:30:27.962Z,38.74
2023-03-18T16:35:34.867Z,39.48
2023-03-18T16:40:30.976Z,40.88
2023-03-18T16:42:58.267Z,40.94
2023-03-18T16:45:30.827Z,40.91
2023-03-18T16:48:03.879Z,41.13
2023-03-18T16:50:34.683Z,40.22
2023-03-18T16:55:30.348Z,39.26
2023-03-18T16:57:59.909Z,40.57
2023-03-18T17:00:33.066Z,41.16
2023-03-18T17:05:29.240Z,41.75
2023-03-18T17:07:56.190Z,41.95
2023-03-18T17:10:26.045Z,42.58
2023-03-18T17:12:59.697Z,42.85
2023-03-18T17:15:32.098Z,43.01
2023-03-18T17:18:00.052Z,43.14
2023-03-18T17:20:30.683Z,43.47
2023-03-18T17:22:58.722Z,44.08
2023-03-18T17:25:28.304Z,44.00
2023-03-18T17:27:56.696Z,44.30
2023-03-18T17:30:31.415Z,45.32
2023-03-18T17:32:58.502Z,45.73
2023-03-18T17:35:26.153Z,45.61
2023-03-18T17:37:54.144Z,46.09
2023-03-18T17:40:23.371Z,47.10
2023-03-18T17:42:53.378Z,47.62
2023-03-18T17:45:35.309Z,47.99
2023-03-18T17:48:03.854Z,48.45
2023-03-18T17:50:30.664Z,49.36
2023-03-18T17:52:58.342Z,49.02
2023-03-18T17:55:26.501Z,49.91
2023-03-18T17:57:53.250Z,50.11
2023-03-18T18:00:24.496Z,51.36
2023-03-18T18:02:54.889Z,51.69
2023-03-18T18:05:23.701Z,50.60
2023-03-18T18:07:51.610Z,52.22
2023-03-18T18:10:20.963Z,53.25
2023-03-18T18:12:49.777Z,53.48
2023-03-18T18:15:20.007Z,53.47
2023-03-18T18:17:48.639Z,53.19
2023-03-18T18:20:19.020Z,54.15
2023-03-18T18:22:51.462Z,54.69
2023-03-18T18:25:21.955Z,55.68
2023-03-18T18:27:49.791Z,55.87
2023-03-18T18:30:18.769Z,57.59
2023-03-18T18:32:49.975Z,59.17
2023-03-18T18:35:19.278Z,59.99
2023-03-18T18:37:47.758Z,59.54
2023-03-18T18:40:16.598Z,60.19
2023-03-18T18:42:44.067Z,59.60
2023-03-18T18:45:18.354Z,59.24
2023-03-18T18:47:45.556Z,59.71
2023-03-18T18:50:21.906Z,59.69
2023-03-18T18:52:49.026Z,59.84
2023-03-18T18:55:15.832Z,59.74
2023-03-18T18:57:42.988Z,61.32
2023-03-18T19:00:22.247Z,61.65
2023-03-18T19:02:56.579Z,62.24
2023-03-18T19:05:23.965Z,63.44
2023-03-18T19:07:50.719Z,63.97
2023-03-18T19:10:18.433Z,65.21
2023-03-18T19:12:45.788Z,65.41
2023-03-18T19:15:15.393Z,66.19
2023-03-18T19:17:43.565Z,66.87
2023-03-18T19:20:30.962Z,67.85
2023-03-18T19:23:01.142Z,68.12
2023-03-18T19:25:27.885Z,68.27
2023-03-18T19:27:55.061Z,66.67
2023-03-18T19:30:24.118Z,66.66
2023-03-18T19:32:51.483Z,67.79
2023-03-18T19:35:18.275Z,68.04
2023-03-18T19:37:47.424Z,67.73
2023-03-18T19:40:20.533Z,70.38
2023-03-18T19:42:47.256Z,70.29
2023-03-18T19:45:14.233Z,69.96
2023-03-18T19:47:42.227Z,71.45
2023-03-18T19:50:17.505Z,71.99
2023-03-18T19:52:46.378Z,72.14
2023-03-18T19:55:15.890Z,73.17
2023-03-18T19:57:48.795Z,73.84
2023-03-18T20:00:24.321Z,73.96
2023-03-18T20:02:51.513Z,73.26
2023-03-18T20:05:21.104Z,71.59
2023-03-18T20:07:50.237Z,71.10
2023-03-18T20:10:19.327Z,70.95
2023-03-18T20:12:48.549Z,71.53
2023-03-18T20:15:23.557Z,72.25
2023-03-18T20:17:51.711Z,72.58
2023-03-18T20:20:20.900Z,73.51
2023-03-18T20:22:59.690Z,74.74
2023-03-18T20:25:35.894Z,73.00
2023-03-18T20:28:03.995Z,73.57
2023-03-18T20:30:35.519Z,73.57
2023-03-18T20:33:04.131Z,73.82
2023-03-18T20:35:34.408Z,73.57
2023-03-18T20:38:03.067Z,73.82
2023-03-18T20:40:31.436Z,74.58
2023-03-18T20:42:58.676Z,74.79
2023-03-18T20:45:27.026Z,74.53
2023-03-18T20:47:53.782Z,75.84
2023-03-18T20:50:26.765Z,76.17
2023-03-18T20:52:53.528Z,76.40
2023-03-18T20:55:29.432Z,76.84
2023-03-18T20:57:56.824Z,77.32
2023-03-18T21:00:26.268Z,76.51
2023-03-18T21:02:56.499Z,76.71
2023-03-18T21:05:25.287Z,77.26
2023-03-18T21:07:53.316Z,77.59
2023-03-18T21:10:22.899Z,77.60
2023-03-18T21:12:50.156Z,77.66
2023-03-18T21:15:25.157Z,76.34
2023-03-18T21:17:51.866Z,76.59
2023-03-18T21:20:22.885Z,76.81
2023-03-18T21:22:51.570Z,77.08
2023-03-18T21:25:21.357Z,77.35
2023-03-18T21:27:48.624Z,77.48
2023-03-18T21:30:17.620Z,77.81
2023-03-18T21:32:45.308Z,78.06
2023-03-18T21:35:18.374Z,78.34
2023-03-18T21:37:45.566Z,79.36
2023-03-18T21:40:21.889Z,79.45
2023-03-18T21:42:52.643Z,79.69
2023-03-18T21:45:22.996Z,79.41
2023-03-18T21:47:53.017Z,79.69
2023-03-18T21:50:22.212Z,79.77
2023-03-18T21:52:49.486Z,80.18
2023-03-18T21:55:17.466Z,81.50
2023-03-18T21:57:45.830Z,81.90
2023-03-18T22:00:22.490Z,82.55
2023-03-18T22:02:50.770Z,82.84
2023-03-18T22:05:21.092Z,83.63
2023-03-18T22:07:48.431Z,84.06
2023-03-18T22:10:17.794Z,84.93
2023-03-18T22:12:44.536Z,85.45
2023-03-18T22:15:33.899Z,85.02
2023-03-18T22:18:00.784Z,84.57
2023-03-18T22:20:27.852Z,84.31
2023-03-18T22:22:54.836Z,84.58
2023-03-18T22:25:28.108Z,84.89
2023-03-18T22:27:54.856Z,85.29
2023-03-18T22:30:22.563Z,85.45
2023-03-18T22:32:49.430Z,85.61
2023-03-18T22:35:21.937Z,86.16
2023-03-18T22:37:49.306Z,85.80
2023-03-18T22:40:27.503Z,85.95
2023-03-18T22:42:56.759Z,85.54
2023-03-18T22:45:26.000Z,85.48
2023-03-18T22:47:55.927Z,85.47
2023-03-18T22:50:24.978Z,85.33
2023-03-18T22:52:58.026Z,85.59
2023-03-18T22:55:27.134Z,85.63
2023-03-18T22:57:53.932Z,85.96
2023-03-18T23:00:30.929Z,85.29
2023-03-18T23:02:58.841Z,85.43
2023-03-18T23:05:26.174Z,84.32
2023-03-18T23:07:54.017Z,84.57
2023-03-18T23:10:21.130Z,84.84
2023-03-18T23:12:48.688Z,84.33
2023-03-18T23:15:18.226Z,84.88
2023-03-18T23:17:46.098Z,84.66
2023-03-18T23:20:15.864Z,84.85
2023-03-18T23:22:43.907Z,84.67
2023-03-18T23:25:16.332Z,84.69
2023-03-18T23:27:43.070Z,85.68
2023-03-18T23:30:11.307Z,86.93
2023-03-18T23:32:39.403Z,87.21
2023-03-18T23:35:07.457Z,88.28
2023-03-18T23:37:34.346Z,89.21
2023-03-18T23:40:01.420Z,89.89
2023-03-18T23:42:31.293Z,90.02
2023-03-18T23:44:57.983Z,89.01
2023-03-18T23:47:24.630Z,88.83
2023-03-18T23:49:51.510Z,89.59
2023-03-18T23:52:18.325Z,90.90
2023-03-18T23:54:45.045Z,91.24
2023-03-18T23:57:12.060Z,91.57
2023-03-18T23:59:39.158Z,91.82
